sensor_id;sensor_type;location;lat;lon;timestamp;pressure;altitude;pressure_sealevel;temperature
53667;BMP280;39568;51.026;5.468;2023-05-14T00:01:19;101020.66;;;11.85
53667;BMP280;39568;51.026;5.468;2023-05-14T00:03:48;101020.69;;;11.91
53667;BMP280;39568;51.026;5.468;2023-05-14T00:06:16;101026.50;;;11.89
53667;BMP280;39568;51.026;5.468;2023-05-14T00:08:47;101023.09;;;11.78
53667;BMP280;39568;51.026;5.468;2023-05-14T00:11:13;101025.00;;;11.72
53667;BMP280;39568;51.026;5.468;2023-05-14T00:13:45;101021.38;;;11.64
53667;BMP280;39568;51.026;5.468;2023-05-14T00:16:13;101019.91;;;11.57
53667;BMP280;39568;51.026;5.468;2023-05-14T00:18:40;101025.72;;;11.50
53667;BMP280;39568;51.026;5.468;2023-05-14T00:21:14;101017.72;;;11.39
53667;BMP280;39568;51.026;5.468;2023-05-14T00:23:42;101021.09;;;11.56
53667;BMP280;39568;51.026;5.468;2023-05-14T00:26:09;101025.22;;;11.52
53667;BMP280;39568;51.026;5.468;2023-05-14T00:28:35;101014.06;;;11.42
53667;BMP280;39568;51.026;5.468;2023-05-14T00:31:04;101013.06;;;11.34
53667;BMP280;39568;51.026;5.468;2023-05-14T00:33:32;101013.06;;;11.34
53667;BMP280;39568;51.026;5.468;2023-05-14T00:36:02;101014.59;;;11.57
53667;BMP280;39568;51.026;5.468;2023-05-14T00:38:29;101011.91;;;11.52
53667;BMP280;39568;51.026;5.468;2023-05-14T00:40:58;101013.13;;;11.56
53667;BMP280;39568;51.026;5.468;2023-05-14T00:43:25;100994.75;;;11.69
53667;BMP280;39568;51.026;5.468;2023-05-14T00:45:53;101001.75;;;11.61
53667;BMP280;39568;51.026;5.468;2023-05-14T00:48:23;100996.88;;;11.43
53667;BMP280;39568;51.026;5.468;2023-05-14T00:50:50;101000.00;;;11.25
53667;BMP280;39568;51.026;5.468;2023-05-14T00:53:21;100991.00;;;11.17
53667;BMP280;39568;51.026;5.468;2023-05-14T00:55:59;100991.97;;;11.19
53667;BMP280;39568;51.026;5.468;2023-05-14T00:58:28;100990.31;;;11.33
53667;BMP280;39568;51.026;5.468;2023-05-14T01:00:55;100983.50;;;11.21
53667;BMP280;39568;51.026;5.468;2023-05-14T01:03:23;100988.78;;;11.10
53667;BMP280;39568;51.026;5.468;2023-05-14T01:05:57;100992.16;;;11.05
53667;BMP280;39568;51.026;5.468;2023-05-14T01:08:31;100995.56;;;11.00
53667;BMP280;39568;51.026;5.468;2023-05-14T01:11:04;100993.56;;;10.95
53667;BMP280;39568;51.026;5.468;2023-05-14T01:13:37;100996.69;;;10.88
53667;BMP280;39568;51.026;5.468;2023-05-14T01:16:11;100992.09;;;10.82
53667;BMP280;39568;51.026;5.468;2023-05-14T01:18:42;100987.50;;;10.89
53667;BMP280;39568;51.026;5.468;2023-05-14T01:21:32;100990.22;;;11.00
53667;BMP280;39568;51.026;5.468;2023-05-14T01:24:00;100986.06;;;10.93
53667;BMP280;39568;51.026;5.468;2023-05-14T01:26:26;100981.72;;;10.90
53667;BMP280;39568;51.026;5.468;2023-05-14T01:28:56;100989.97;;;10.98
53667;BMP280;39568;51.026;5.468;2023-05-14T01:31:25;100982.31;;;11.27
53667;BMP280;39568;51.026;5.468;2023-05-14T01:33:53;100996.09;;;11.26
53667;BMP280;39568;51.026;5.468;2023-05-14T01:36:21;100996.59;;;11.35
53667;BMP280;39568;51.026;5.468;2023-05-14T01:38:56;100999.25;;;11.24
53667;BMP280;39568;51.026;5.468;2023-05-14T01:41:24;100989.97;;;10.92
53667;BMP280;39568;51.026;5.468;2023-05-14T01:43:53;100982.13;;;10.77
53667;BMP280;39568;51.026;5.468;2023-05-14T01:46:24;100977.72;;;10.69
53667;BMP280;39568;51.026;5.468;2023-05-14T01:48:53;100970.91;;;10.57
53667;BMP280;39568;51.026;5.468;2023-05-14T01:51:19;100987.59;;;10.57
53667;BMP280;39568;51.026;5.468;2023-05-14T01:53:46;100981.78;;;10.53
53667;BMP280;39568;51.026;5.468;2023-05-14T01:56:14;100991.53;;;10.73
53667;BMP280;39568;51.026;5.468;2023-05-14T01:58:41;100988.38;;;10.69
53667;BMP280;39568;51.026;5.468;2023-05-14T02:01:09;100995.06;;;10.53
53667;BMP280;39568;51.026;5.468;2023-05-14T02:03:37;100986.50;;;10.38
53667;BMP280;39568;51.026;5.468;2023-05-14T02:06:04;100979.97;;;10.34
53667;BMP280;39568;51.026;5.468;2023-05-14T02:08:30;100987.81;;;10.54
53667;BMP280;39568;51.026;5.468;2023-05-14T02:10:57;100987.47;;;10.77
53667;BMP280;39568;51.026;5.468;2023-05-14T02:13:26;100988.22;;;10.89
53667;BMP280;39568;51.026;5.468;2023-05-14T02:15:55;100981.41;;;10.77
53667;BMP280;39568;51.026;5.468;2023-05-14T02:18:22;100981.00;;;10.47
53667;BMP280;39568;51.026;5.468;2023-05-14T02:20:48;100976.09;;;10.29
53667;BMP280;39568;51.026;5.468;2023-05-14T02:23:15;100979.38;;;10.18
53667;BMP280;39568;51.026;5.468;2023-05-14T02:25:46;100981.84;;;10.28
53667;BMP280;39568;51.026;5.468;2023-05-14T02:28:13;100983.66;;;10.47
53667;BMP280;39568;51.026;5.468;2023-05-14T02:30:41;100982.19;;;10.46
53667;BMP280;39568;51.026;5.468;2023-05-14T02:33:08;100985.56;;;10.41
53667;BMP280;39568;51.026;5.468;2023-05-14T02:35:35;100973.81;;;10.22
53667;BMP280;39568;51.026;5.468;2023-05-14T02:38:03;100975.63;;;10.05
53667;BMP280;39568;51.026;5.468;2023-05-14T02:40:30;100974.53;;;9.86
53667;BMP280;39568;51.026;5.468;2023-05-14T02:42:56;100966.50;;;9.80
53667;BMP280;39568;51.026;5.468;2023-05-14T02:45:23;100963.19;;;9.91
53667;BMP280;39568;51.026;5.468;2023-05-14T02:47:51;100963.28;;;9.71
53667;BMP280;39568;51.026;5.468;2023-05-14T02:50:21;100966.00;;;9.50
53667;BMP280;39568;51.026;5.468;2023-05-14T02:52:50;100968.13;;;9.46
53667;BMP280;39568;51.026;5.468;2023-05-14T02:55:16;100961.91;;;9.29
53667;BMP280;39568;51.026;5.468;2023-05-14T02:57:50;100964.56;;;9.29
53667;BMP280;39568;51.026;5.468;2023-05-14T03:00:18;100965.63;;;9.17
53667;BMP280;39568;51.026;5.468;2023-05-14T03:02:45;100960.53;;;9.14
53667;BMP280;39568;51.026;5.468;2023-05-14T03:05:13;100967.88;;;9.24
53667;BMP280;39568;51.026;5.468;2023-05-14T03:07:39;100976.97;;;9.18
53667;BMP280;39568;51.026;5.468;2023-05-14T03:10:08;100972.81;;;9.11
53667;BMP280;39568;51.026;5.468;2023-05-14T03:12:37;100981.44;;;9.06
53667;BMP280;39568;51.026;5.468;2023-05-14T03:15:05;100975.88;;;9.04
53667;BMP280;39568;51.026;5.468;2023-05-14T03:17:32;100978.38;;;8.93
53667;BMP280;39568;51.026;5.468;2023-05-14T03:20:00;100981.94;;;8.90
53667;BMP280;39568;51.026;5.468;2023-05-14T03:22:29;100978.56;;;8.89
53667;BMP280;39568;51.026;5.468;2023-05-14T03:24:57;100975.84;;;8.84
53667;BMP280;39568;51.026;5.468;2023-05-14T03:27:23;100972.66;;;8.80
53667;BMP280;39568;51.026;5.468;2023-05-14T03:29:50;100963.97;;;8.79
53667;BMP280;39568;51.026;5.468;2023-05-14T03:32:17;100963.31;;;8.84
53667;BMP280;39568;51.026;5.468;2023-05-14T03:34:44;100963.56;;;9.07
53667;BMP280;39568;51.026;5.468;2023-05-14T03:37:10;100964.78;;;9.06
53667;BMP280;39568;51.026;5.468;2023-05-14T03:39:39;100960.94;;;8.86
53667;BMP280;39568;51.026;5.468;2023-05-14T03:42:07;100950.94;;;8.81
53667;BMP280;39568;51.026;5.468;2023-05-14T03:44:34;100954.88;;;8.86
53667;BMP280;39568;51.026;5.468;2023-05-14T03:47:01;100958.88;;;8.76
53667;BMP280;39568;51.026;5.468;2023-05-14T03:49:28;100945.97;;;8.69
53667;BMP280;39568;51.026;5.468;2023-05-14T03:51:55;100949.13;;;8.67
53667;BMP280;39568;51.026;5.468;2023-05-14T03:54:23;100941.97;;;8.59
53667;BMP280;39568;51.026;5.468;2023-05-14T03:56:51;100942.38;;;8.52
53667;BMP280;39568;51.026;5.468;2023-05-14T03:59:18;100948.75;;;8.60
53667;BMP280;39568;51.026;5.468;2023-05-14T04:01:44;100942.00;;;8.79
53667;BMP280;39568;51.026;5.468;2023-05-14T04:04:11;100942.69;;;9.14
53667;BMP280;39568;51.026;5.468;2023-05-14T04:06:38;100956.34;;;9.27
53667;BMP280;39568;51.026;5.468;2023-05-14T04:09:06;100940.31;;;8.96
53667;BMP280;39568;51.026;5.468;2023-05-14T04:11:35;100939.47;;;8.90
53667;BMP280;39568;51.026;5.468;2023-05-14T04:14:04;100941.09;;;9.02
53667;BMP280;39568;51.026;5.468;2023-05-14T04:16:31;100949.22;;;9.39
53667;BMP280;39568;51.026;5.468;2023-05-14T04:19:01;100947.41;;;9.50
53667;BMP280;39568;51.026;5.468;2023-05-14T04:21:30;100947.72;;;9.58
53667;BMP280;39568;51.026;5.468;2023-05-14T04:23:57;100953.28;;;9.60
53667;BMP280;39568;51.026;5.468;2023-05-14T04:26:24;100953.63;;;9.73
53667;BMP280;39568;51.026;5.468;2023-05-14T04:28:51;100954.94;;;9.83
53667;BMP280;39568;51.026;5.468;2023-05-14T04:31:19;100949.00;;;9.68
53667;BMP280;39568;51.026;5.468;2023-05-14T04:33:45;100942.97;;;9.68
53667;BMP280;39568;51.026;5.468;2023-05-14T04:36:13;100948.56;;;9.70
53667;BMP280;39568;51.026;5.468;2023-05-14T04:38:40;100949.41;;;9.87
53667;BMP280;39568;51.026;5.468;2023-05-14T04:41:07;100960.38;;;9.94
53667;BMP280;39568;51.026;5.468;2023-05-14T04:43:34;100946.84;;;9.98
53667;BMP280;39568;51.026;5.468;2023-05-14T04:46:00;100949.13;;;10.16
53667;BMP280;39568;51.026;5.468;2023-05-14T04:48:28;100947.03;;;10.26
53667;BMP280;39568;51.026;5.468;2023-05-14T04:50:55;100952.25;;;10.09
53667;BMP280;39568;51.026;5.468;2023-05-14T04:53:22;100950.03;;;10.02
53667;BMP280;39568;51.026;5.468;2023-05-14T04:55:48;100951.13;;;10.21
53667;BMP280;39568;51.026;5.468;2023-05-14T04:58:16;100962.38;;;10.47
53667;BMP280;39568;51.026;5.468;2023-05-14T05:00:47;100954.72;;;10.60
53667;BMP280;39568;51.026;5.468;2023-05-14T05:03:14;100949.19;;;10.69
53667;BMP280;39568;51.026;5.468;2023-05-14T05:05:45;100958.69;;;10.81
53667;BMP280;39568;51.026;5.468;2023-05-14T05:08:12;100957.75;;;10.90
53667;BMP280;39568;51.026;5.468;2023-05-14T05:10:39;100956.09;;;10.98
53667;BMP280;39568;51.026;5.468;2023-05-14T05:13:05;100961.22;;;11.07
53667;BMP280;39568;51.026;5.468;2023-05-14T05:15:32;100955.66;;;11.16
53667;BMP280;39568;51.026;5.468;2023-05-14T05:17:59;100966.56;;;11.24
53667;BMP280;39568;51.026;5.468;2023-05-14T05:20:26;100969.25;;;11.29
53667;BMP280;39568;51.026;5.468;2023-05-14T05:22:54;100970.44;;;11.34
53667;BMP280;39568;51.026;5.468;2023-05-14T05:25:21;100965.63;;;11.43
53667;BMP280;39568;51.026;5.468;2023-05-14T05:27:48;100968.06;;;11.47
53667;BMP280;39568;51.026;5.468;2023-05-14T05:30:14;100966.88;;;11.54
53667;BMP280;39568;51.026;5.468;2023-05-14T05:32:41;100967.13;;;11.61
53667;BMP280;39568;51.026;5.468;2023-05-14T05:35:08;100964.19;;;11.70
53667;BMP280;39568;51.026;5.468;2023-05-14T05:37:35;100961.31;;;11.74
53667;BMP280;39568;51.026;5.468;2023-05-14T05:40:04;100960.06;;;11.86
53667;BMP280;39568;51.026;5.468;2023-05-14T05:42:31;100965.88;;;11.95
53667;BMP280;39568;51.026;5.468;2023-05-14T05:45:00;100957.38;;;12.02
53667;BMP280;39568;51.026;5.468;2023-05-14T05:47:27;100960.50;;;12.06
53667;BMP280;39568;51.026;5.468;2023-05-14T05:49:54;100967.53;;;12.15
53667;BMP280;39568;51.026;5.468;2023-05-14T05:52:23;100965.84;;;12.23
53667;BMP280;39568;51.026;5.468;2023-05-14T05:54:52;100971.44;;;12.25
53667;BMP280;39568;51.026;5.468;2023-05-14T05:57:20;100968.47;;;12.34
53667;BMP280;39568;51.026;5.468;2023-05-14T05:59:47;100972.59;;;12.41
53667;BMP280;39568;51.026;5.468;2023-05-14T06:02:16;100970.63;;;12.52
53667;BMP280;39568;51.026;5.468;2023-05-14T06:04:43;100975.91;;;12.63
53667;BMP280;39568;51.026;5.468;2023-05-14T06:07:10;100978.09;;;12.65
53667;BMP280;39568;51.026;5.468;2023-05-14T06:09:37;100977.06;;;12.79
53667;BMP280;39568;51.026;5.468;2023-05-14T06:12:04;100982.63;;;12.81
53667;BMP280;39568;51.026;5.468;2023-05-14T06:14:36;100990.16;;;12.77
53667;BMP280;39568;51.026;5.468;2023-05-14T06:17:05;100980.19;;;12.83
53667;BMP280;39568;51.026;5.468;2023-05-14T06:19:32;100984.06;;;12.82
53667;BMP280;39568;51.026;5.468;2023-05-14T06:21:59;100990.44;;;12.79
53667;BMP280;39568;51.026;5.468;2023-05-14T06:24:27;100988.69;;;12.87
53667;BMP280;39568;51.026;5.468;2023-05-14T06:26:53;100982.47;;;13.09
53667;BMP280;39568;51.026;5.468;2023-05-14T06:29:20;100985.44;;;13.40
53667;BMP280;39568;51.026;5.468;2023-05-14T06:31:49;100981.69;;;13.55
53667;BMP280;39568;51.026;5.468;2023-05-14T06:34:15;100987.00;;;13.60
53667;BMP280;39568;51.026;5.468;2023-05-14T06:36:42;100991.75;;;13.73
53667;BMP280;39568;51.026;5.468;2023-05-14T06:39:08;100996.31;;;13.83
53667;BMP280;39568;51.026;5.468;2023-05-14T06:41:38;100992.00;;;13.99
53667;BMP280;39568;51.026;5.468;2023-05-14T06:44:08;100988.59;;;13.98
53667;BMP280;39568;51.026;5.468;2023-05-14T06:46:40;100977.31;;;14.11
53667;BMP280;39568;51.026;5.468;2023-05-14T06:49:11;100983.22;;;14.47
53667;BMP280;39568;51.026;5.468;2023-05-14T06:51:38;100983.66;;;14.69
53667;BMP280;39568;51.026;5.468;2023-05-14T06:54:05;100986.03;;;14.92
53667;BMP280;39568;51.026;5.468;2023-05-14T06:56:33;100986.50;;;15.27
53667;BMP280;39568;51.026;5.468;2023-05-14T06:59:00;100989.06;;;15.52
53667;BMP280;39568;51.026;5.468;2023-05-14T07:01:27;100985.75;;;15.59
53667;BMP280;39568;51.026;5.468;2023-05-14T07:03:54;100983.38;;;15.55
53667;BMP280;39568;51.026;5.468;2023-05-14T07:06:22;100981.53;;;15.63
53667;BMP280;39568;51.026;5.468;2023-05-14T07:08:52;100987.06;;;15.39
53667;BMP280;39568;51.026;5.468;2023-05-14T07:11:19;100984.63;;;15.54
53667;BMP280;39568;51.026;5.468;2023-05-14T07:13:48;100979.81;;;15.79
53667;BMP280;39568;51.026;5.468;2023-05-14T07:16:17;100989.13;;;16.04
53667;BMP280;39568;51.026;5.468;2023-05-14T07:18:44;100983.84;;;16.11
53667;BMP280;39568;51.026;5.468;2023-05-14T07:21:10;100987.13;;;16.17
53667;BMP280;39568;51.026;5.468;2023-05-14T07:23:41;100990.13;;;16.27
53667;BMP280;39568;51.026;5.468;2023-05-14T07:26:14;100984.53;;;16.38
53667;BMP280;39568;51.026;5.468;2023-05-14T07:28:43;100983.31;;;16.13
53667;BMP280;39568;51.026;5.468;2023-05-14T07:31:10;100989.16;;;16.38
53667;BMP280;39568;51.026;5.468;2023-05-14T07:33:37;100983.16;;;16.58
53667;BMP280;39568;51.026;5.468;2023-05-14T07:36:04;100988.09;;;16.54
53667;BMP280;39568;51.026;5.468;2023-05-14T07:38:31;100983.69;;;16.43
53667;BMP280;39568;51.026;5.468;2023-05-14T07:40:59;100989.97;;;16.59
53667;BMP280;39568;51.026;5.468;2023-05-14T07:43:26;100988.09;;;16.54
53667;BMP280;39568;51.026;5.468;2023-05-14T07:45:53;100992.81;;;16.74
53667;BMP280;39568;51.026;5.468;2023-05-14T07:48:19;100986.81;;;17.02
53667;BMP280;39568;51.026;5.468;2023-05-14T07:50:49;100988.66;;;17.27
53667;BMP280;39568;51.026;5.468;2023-05-14T07:53:15;100995.88;;;17.60
53667;BMP280;39568;51.026;5.468;2023-05-14T07:55:43;100996.59;;;17.12
53667;BMP280;39568;51.026;5.468;2023-05-14T07:58:13;100986.59;;;17.00
53667;BMP280;39568;51.026;5.468;2023-05-14T08:00:44;100992.69;;;16.79
53667;BMP280;39568;51.026;5.468;2023-05-14T08:03:11;100995.25;;;16.85
53667;BMP280;39568;51.026;5.468;2023-05-14T08:05:37;100992.78;;;17.08
53667;BMP280;39568;51.026;5.468;2023-05-14T08:08:04;100996.03;;;16.72
53667;BMP280;39568;51.026;5.468;2023-05-14T08:10:39;100978.84;;;16.75
53667;BMP280;39568;51.026;5.468;2023-05-14T08:13:06;100986.34;;;16.90
53667;BMP280;39568;51.026;5.468;2023-05-14T08:15:34;100986.28;;;17.03
53667;BMP280;39568;51.026;5.468;2023-05-14T08:18:03;100983.66;;;17.31
53667;BMP280;39568;51.026;5.468;2023-05-14T08:20:36;100989.03;;;17.31
53667;BMP280;39568;51.026;5.468;2023-05-14T08:23:03;100987.41;;;17.08
53667;BMP280;39568;51.026;5.468;2023-05-14T08:25:31;100976.72;;;17.15
53667;BMP280;39568;51.026;5.468;2023-05-14T08:27:58;100985.94;;;17.48
53667;BMP280;39568;51.026;5.468;2023-05-14T08:30:26;100985.78;;;17.53
53667;BMP280;39568;51.026;5.468;2023-05-14T08:32:54;100980.41;;;17.82
53667;BMP280;39568;51.026;5.468;2023-05-14T08:35:21;100977.31;;;17.78
53667;BMP280;39568;51.026;5.468;2023-05-14T08:37:47;100979.19;;;17.90
53667;BMP280;39568;51.026;5.468;2023-05-14T08:40:15;100966.25;;;17.89
53667;BMP280;39568;51.026;5.468;2023-05-14T08:42:42;100982.19;;;18.15
53667;BMP280;39568;51.026;5.468;2023-05-14T08:45:14;100974.75;;;18.00
53667;BMP280;39568;51.026;5.468;2023-05-14T08:47:43;100970.47;;;18.05
53667;BMP280;39568;51.026;5.468;2023-05-14T08:50:14;100970.84;;;18.09
53667;BMP280;39568;51.026;5.468;2023-05-14T08:52:42;100970.91;;;18.31
53667;BMP280;39568;51.026;5.468;2023-05-14T08:55:11;100978.84;;;18.44
53667;BMP280;39568;51.026;5.468;2023-05-14T08:57:38;100969.81;;;18.19
53667;BMP280;39568;51.026;5.468;2023-05-14T09:00:06;100971.13;;;17.90
53667;BMP280;39568;51.026;5.468;2023-05-14T09:02:36;100962.72;;;17.65
53667;BMP280;39568;51.026;5.468;2023-05-14T09:05:18;100967.16;;;17.84
53667;BMP280;39568;51.026;5.468;2023-05-14T09:07:45;100964.78;;;18.31
53667;BMP280;39568;51.026;5.468;2023-05-14T09:10:12;100966.72;;;18.96
53667;BMP280;39568;51.026;5.468;2023-05-14T09:12:39;100973.16;;;18.86
53667;BMP280;39568;51.026;5.468;2023-05-14T09:15:07;100961.81;;;18.57
53667;BMP280;39568;51.026;5.468;2023-05-14T09:17:34;100964.91;;;18.99
53667;BMP280;39568;51.026;5.468;2023-05-14T09:20:08;100961.31;;;18.74
53667;BMP280;39568;51.026;5.468;2023-05-14T09:22:38;100964.16;;;19.21
53667;BMP280;39568;51.026;5.468;2023-05-14T09:25:07;100957.63;;;19.62
53667;BMP280;39568;51.026;5.468;2023-05-14T09:27:34;100957.97;;;20.13
53667;BMP280;39568;51.026;5.468;2023-05-14T09:30:06;100952.81;;;20.32
53667;BMP280;39568;51.026;5.468;2023-05-14T09:32:35;100950.00;;;20.47
53667;BMP280;39568;51.026;5.468;2023-05-14T09:35:13;100951.03;;;22.06
53667;BMP280;39568;51.026;5.468;2023-05-14T09:37:44;100954.47;;;21.79
53667;BMP280;39568;51.026;5.468;2023-05-14T09:40:12;100949.75;;;22.98
53667;BMP280;39568;51.026;5.468;2023-05-14T09:42:39;100944.31;;;22.33
53667;BMP280;39568;51.026;5.468;2023-05-14T09:45:07;100954.47;;;23.17
53667;BMP280;39568;51.026;5.468;2023-05-14T09:47:34;100943.78;;;24.18
53667;BMP280;39568;51.026;5.468;2023-05-14T09:50:01;100943.00;;;21.98
53667;BMP280;39568;51.026;5.468;2023-05-14T09:52:28;100948.28;;;21.69
53667;BMP280;39568;51.026;5.468;2023-05-14T09:54:56;100938.66;;;22.48
53667;BMP280;39568;51.026;5.468;2023-05-14T09:57:23;100945.16;;;23.98
53667;BMP280;39568;51.026;5.468;2023-05-14T09:59:51;100944.31;;;24.47
53667;BMP280;39568;51.026;5.468;2023-05-14T10:02:22;100945.31;;;23.22
53667;BMP280;39568;51.026;5.468;2023-05-14T10:04:49;100948.44;;;24.91
53667;BMP280;39568;51.026;5.468;2023-05-14T10:07:26;100947.06;;;24.68
53667;BMP280;39568;51.026;5.468;2023-05-14T10:10:00;100948.63;;;24.50
53667;BMP280;39568;51.026;5.468;2023-05-14T10:12:30;100947.19;;;25.24
53667;BMP280;39568;51.026;5.468;2023-05-14T10:15:00;100947.06;;;26.49
53667;BMP280;39568;51.026;5.468;2023-05-14T10:17:33;100936.34;;;27.29
53667;BMP280;39568;51.026;5.468;2023-05-14T10:20:02;100932.59;;;27.22
53667;BMP280;39568;51.026;5.468;2023-05-14T10:22:32;100937.53;;;28.48
53667;BMP280;39568;51.026;5.468;2023-05-14T10:25:02;100942.06;;;29.32
53667;BMP280;39568;51.026;5.468;2023-05-14T10:27:30;100934.16;;;30.77
53667;BMP280;39568;51.026;5.468;2023-05-14T10:29:57;100929.97;;;31.13
53667;BMP280;39568;51.026;5.468;2023-05-14T10:32:27;100925.53;;;32.29
53667;BMP280;39568;51.026;5.468;2023-05-14T10:34:57;100918.91;;;31.31
53667;BMP280;39568;51.026;5.468;2023-05-14T10:37:25;100927.47;;;32.03
53667;BMP280;39568;51.026;5.468;2023-05-14T10:39:58;100916.78;;;32.37
53667;BMP280;39568;51.026;5.468;2023-05-14T10:42:26;100917.56;;;31.73
53667;BMP280;39568;51.026;5.468;2023-05-14T10:44:55;100915.19;;;31.63
53667;BMP280;39568;51.026;5.468;2023-05-14T10:47:23;100925.25;;;30.24
53667;BMP280;39568;51.026;5.468;2023-05-14T10:49:53;100918.41;;;28.34
53667;BMP280;39568;51.026;5.468;2023-05-14T10:52:20;100916.38;;;28.64
53667;BMP280;39568;51.026;5.468;2023-05-14T10:54:50;100910.09;;;29.55
53667;BMP280;39568;51.026;5.468;2023-05-14T10:57:20;100912.56;;;29.97
53667;BMP280;39568;51.026;5.468;2023-05-14T10:59:50;100916.34;;;30.78
53667;BMP280;39568;51.026;5.468;2023-05-14T11:02:20;100909.88;;;29.33
53667;BMP280;39568;51.026;5.468;2023-05-14T11:04:57;100902.75;;;28.07
53667;BMP280;39568;51.026;5.468;2023-05-14T11:07:28;100909.97;;;29.19
53667;BMP280;39568;51.026;5.468;2023-05-14T11:09:59;100900.31;;;30.35
53667;BMP280;39568;51.026;5.468;2023-05-14T11:12:26;100896.91;;;30.72
53667;BMP280;39568;51.026;5.468;2023-05-14T11:14:55;100896.28;;;31.32
53667;BMP280;39568;51.026;5.468;2023-05-14T11:17:23;100897.09;;;30.41
53667;BMP280;39568;51.026;5.468;2023-05-14T11:19:53;100897.75;;;28.17
53667;BMP280;39568;51.026;5.468;2023-05-14T11:22:20;100891.16;;;27.80
53667;BMP280;39568;51.026;5.468;2023-05-14T11:24:47;100892.19;;;30.02
53667;BMP280;39568;51.026;5.468;2023-05-14T11:27:14;100876.41;;;31.98
53667;BMP280;39568;51.026;5.468;2023-05-14T11:29:43;100884.47;;;31.71
53667;BMP280;39568;51.026;5.468;2023-05-14T11:32:14;100886.81;;;30.24
53667;BMP280;39568;51.026;5.468;2023-05-14T11:34:42;100875.28;;;31.62
53667;BMP280;39568;51.026;5.468;2023-05-14T11:37:11;100877.09;;;29.86
53667;BMP280;39568;51.026;5.468;2023-05-14T11:39:38;100870.81;;;28.12
53667;BMP280;39568;51.026;5.468;2023-05-14T11:42:10;100876.06;;;26.86
53667;BMP280;39568;51.026;5.468;2023-05-14T11:44:39;100878.16;;;26.62
53667;BMP280;39568;51.026;5.468;2023-05-14T11:47:06;100867.25;;;26.62
53667;BMP280;39568;51.026;5.468;2023-05-14T11:49:34;100864.63;;;27.69
53667;BMP280;39568;51.026;5.468;2023-05-14T11:52:03;100871.50;;;29.33
53667;BMP280;39568;51.026;5.468;2023-05-14T11:54:30;100862.16;;;31.82
53667;BMP280;39568;51.026;5.468;2023-05-14T11:57:00;100864.00;;;33.51
53667;BMP280;39568;51.026;5.468;2023-05-14T11:59:28;100860.59;;;34.89
53667;BMP280;39568;51.026;5.468;2023-05-14T12:01:58;100856.25;;;36.19
53667;BMP280;39568;51.026;5.468;2023-05-14T12:04:27;100842.56;;;36.37
53667;BMP280;39568;51.026;5.468;2023-05-14T12:06:59;100848.53;;;36.81
53667;BMP280;39568;51.026;5.468;2023-05-14T12:09:26;100840.69;;;37.53
53667;BMP280;39568;51.026;5.468;2023-05-14T12:11:53;100847.22;;;38.59
53667;BMP280;39568;51.026;5.468;2023-05-14T12:14:23;100842.34;;;38.86
53667;BMP280;39568;51.026;5.468;2023-05-14T12:16:56;100828.44;;;38.70
53667;BMP280;39568;51.026;5.468;2023-05-14T12:19:25;100820.97;;;35.65
53667;BMP280;39568;51.026;5.468;2023-05-14T12:21:55;100826.78;;;32.44
53667;BMP280;39568;51.026;5.468;2023-05-14T12:24:28;100830.25;;;30.91
53667;BMP280;39568;51.026;5.468;2023-05-14T12:26:54;100829.34;;;30.84
53667;BMP280;39568;51.026;5.468;2023-05-14T12:29:22;100824.38;;;31.42
53667;BMP280;39568;51.026;5.468;2023-05-14T12:31:51;100823.31;;;31.72
53667;BMP280;39568;51.026;5.468;2023-05-14T12:34:18;100827.03;;;31.59
53667;BMP280;39568;51.026;5.468;2023-05-14T12:36:44;100831.88;;;29.87
53667;BMP280;39568;51.026;5.468;2023-05-14T12:39:11;100827.06;;;29.03
53667;BMP280;39568;51.026;5.468;2023-05-14T12:41:39;100814.31;;;29.94
53667;BMP280;39568;51.026;5.468;2023-05-14T12:44:06;100819.66;;;30.44
53667;BMP280;39568;51.026;5.468;2023-05-14T12:46:33;100811.66;;;29.96
53667;BMP280;39568;51.026;5.468;2023-05-14T12:48:59;100812.41;;;29.46
53667;BMP280;39568;51.026;5.468;2023-05-14T12:51:26;100799.03;;;30.06
53667;BMP280;39568;51.026;5.468;2023-05-14T12:53:53;100805.31;;;31.05
53667;BMP280;39568;51.026;5.468;2023-05-14T12:56:19;100796.38;;;31.69
53667;BMP280;39568;51.026;5.468;2023-05-14T12:58:54;100805.63;;;31.79
53667;BMP280;39568;51.026;5.468;2023-05-14T13:01:23;100806.22;;;31.76
53667;BMP280;39568;51.026;5.468;2023-05-14T13:03:50;100804.91;;;33.60
53667;BMP280;39568;51.026;5.468;2023-05-14T13:06:17;100795.81;;;34.60
53667;BMP280;39568;51.026;5.468;2023-05-14T13:08:43;100786.66;;;35.88
53667;BMP280;39568;51.026;5.468;2023-05-14T13:11:10;100791.50;;;35.92
53667;BMP280;39568;51.026;5.468;2023-05-14T13:13:37;100799.63;;;33.72
53667;BMP280;39568;51.026;5.468;2023-05-14T13:16:05;100793.31;;;34.74
53667;BMP280;39568;51.026;5.468;2023-05-14T13:18:32;100791.28;;;34.77
53667;BMP280;39568;51.026;5.468;2023-05-14T13:20:59;100795.00;;;34.52
53667;BMP280;39568;51.026;5.468;2023-05-14T13:23:28;100777.31;;;35.10
53667;BMP280;39568;51.026;5.468;2023-05-14T13:25:55;100777.06;;;35.97
53667;BMP280;39568;51.026;5.468;2023-05-14T13:28:22;100773.78;;;36.99
53667;BMP280;39568;51.026;5.468;2023-05-14T13:31:04;100776.09;;;34.38
53667;BMP280;39568;51.026;5.468;2023-05-14T13:33:33;100773.53;;;32.61
53667;BMP280;39568;51.026;5.468;2023-05-14T13:36:00;100777.63;;;30.40
53667;BMP280;39568;51.026;5.468;2023-05-14T13:38:27;100773.63;;;30.43
53667;BMP280;39568;51.026;5.468;2023-05-14T13:40:56;100778.97;;;30.78
53667;BMP280;39568;51.026;5.468;2023-05-14T13:43:28;100762.28;;;31.13
53667;BMP280;39568;51.026;5.468;2023-05-14T13:45:55;100753.66;;;29.86
53667;BMP280;39568;51.026;5.468;2023-05-14T13:48:24;100760.44;;;30.20
53667;BMP280;39568;51.026;5.468;2023-05-14T13:50:51;100763.38;;;31.47
53667;BMP280;39568;51.026;5.468;2023-05-14T13:53:18;100759.66;;;29.29
53667;BMP280;39568;51.026;5.468;2023-05-14T13:55:45;100750.09;;;30.77
53667;BMP280;39568;51.026;5.468;2023-05-14T13:58:13;100750.59;;;29.09
53667;BMP280;39568;51.026;5.468;2023-05-14T14:00:40;100757.53;;;29.28
53667;BMP280;39568;51.026;5.468;2023-05-14T14:03:09;100751.19;;;28.75
53667;BMP280;39568;51.026;5.468;2023-05-14T14:05:43;100756.69;;;27.70